Time;durP1;ratioP1;P1;durP2;ratioP2;P2;SDS_P1;SDS_P2;PMS_P1;PMS_P2;Temp;Humidity;BMP_temperature;BMP_pressure;BME280_temperature;BME280_humidity;BME280_pressure;Samples;Min_cycle;Max_cycle;Signal;HPM_P1;HPM_P2
2022/01/01 00:02:11;;;;;;;31.90;28.60;;;;;;;4.39;79.79;102152.16;4910328;29;20060;-84
2022/01/01 00:04:58;;;;;;;28.90;26.00;;;;;;;4.23;79.83;102137.00;4911294;29;20060;-83
2022/01/01 00:07:24;;;;;;;29.85;24.85;;;;;;;4.14;79.74;102113.69;4910724;29;20475;-84
2022/01/01 00:09:51;;;;;;;28.10;25.15;;;;;;;3.75;79.62;102056.44;4920484;29;20139;-84
2022/01/01 00:12:18;;;;;;;35.03;31.42;;;;;;;4.32;79.50;102158.56;4929675;29;20055;-83
2022/01/01 00:14:45;;;;;;;38.92;34.03;;;;;;;4.06;79.04;102119.22;4928986;29;20090;-83
2022/01/01 00:17:11;;;;;;;42.47;37.90;;;;;;;3.89;79.54;102089.25;4928416;29;20091;-84
2022/01/01 00:19:39;;;;;;;41.80;37.35;;;;;;;3.97;79.40;102082.78;4930417;29;20051;-84
2022/01/01 00:22:07;;;;;;;51.97;45.92;;;;;;;4.19;79.20;102118.75;4930110;29;20047;-84
2022/01/01 00:24:34;;;;;;;61.78;55.10;;;;;;;4.17;79.59;102110.91;4932275;29;20144;-83
2022/01/01 00:27:01;;;;;;;70.93;60.30;;;;;;;4.13;79.82;102113.75;4948012;29;20050;-83
2022/01/01 00:29:30;;;;;;;61.22;53.17;;;;;;;4.07;79.82;102099.91;4932638;29;20139;-84
2022/01/01 00:31:56;;;;;;;53.88;46.13;;;;;;;4.03;79.69;102079.94;4932440;29;20055;-83
2022/01/01 00:34:23;;;;;;;39.63;35.38;;;;;;;3.86;79.44;102053.44;4933653;29;20067;-82
2022/01/01 00:36:50;;;;;;;40.88;36.45;;;;;;;4.25;79.61;102126.44;4933685;29;20065;-81
2022/01/01 00:39:17;;;;;;;43.78;39.08;;;;;;;3.96;79.37;102067.94;4932273;29;20522;-82
2022/01/01 00:41:43;;;;;;;47.40;42.47;;;;;;;4.18;78.97;102111.81;4932268;29;20047;-81
2022/01/01 00:44:10;;;;;;;51.00;45.53;;;;;;;4.11;79.15;102094.56;4932265;29;20154;-82
2022/01/01 00:46:36;;;;;;;59.55;52.70;;;;;;;3.69;79.65;102040.06;4948232;29;20130;-82
2022/01/01 00:49:03;;;;;;;57.88;49.67;;;;;;;4.19;79.53;102134.53;4932179;29;20055;-83
2022/01/01 00:51:30;;;;;;;53.72;48.05;;;;;;;3.96;79.90;102104.72;4932223;29;20048;-83
2022/01/01 00:53:56;;;;;;;53.47;47.80;;;;;;;4.12;80.06;102128.63;4931830;29;20062;-84
2022/01/01 00:56:23;;;;;;;54.63;48.90;;;;;;;4.14;79.79;102136.47;4933544;29;20051;-82
2022/01/01 00:58:49;;;;;;;62.53;50.55;;;;;;;4.21;79.79;102132.72;4933373;29;20694;-82
2022/01/01 01:01:16;;;;;;;56.77;49.37;;;;;;;4.06;79.67;102135.00;4932035;29;20054;-84
2022/01/01 01:03:43;;;;;;;58.23;44.37;;;;;;;4.13;80.21;102134.78;4931736;29;20063;-83
2022/01/01 01:06:14;;;;;;;54.30;46.53;;;;;;;4.10;79.79;102134.88;4931808;29;20590;-82
2022/01/01 01:08:41;;;;;;;50.03;44.57;;;;;;;4.05;80.00;102138.56;4947602;28;20472;-82
2022/01/01 01:11:08;;;;;;;48.53;43.27;;;;;;;4.14;79.90;102136.47;4931857;29;20366;-82
2022/01/01 01:13:38;;;;;;;48.40;43.35;;;;;;;3.98;79.67;102142.31;4931973;29;20217;-83
2022/01/01 01:16:05;;;;;;;48.00;42.57;;;;;;;3.72;80.41;102092.50;4931621;29;20086;-83
2022/01/01 01:18:32;;;;;;;50.47;44.67;;;;;;;3.61;79.84;102070.06;4931515;29;20055;-82
2022/01/01 01:20:58;;;;;;;47.63;42.35;;;;;;;3.95;79.69;102141.56;4932788;29;20054;-83
2022/01/01 01:23:25;;;;;;;48.40;43.17;;;;;;;3.83;79.74;102130.56;4931732;29;20056;-83
2022/01/01 01:25:54;;;;;;;47.70;42.53;;;;;;;3.98;79.64;102149.31;4934062;29;20134;-82
2022/01/01 01:28:21;;;;;;;45.72;40.90;;;;;;;3.80;79.88;102121.94;4934237;29;20048;-81
2022/01/01 01:30:47;;;;;;;42.30;37.77;;;;;;;3.17;79.23;102022.66;4934521;29;20083;-82
2022/01/01 01:33:14;;;;;;;47.55;36.45;;;;;;;3.92;78.84;102168.81;4934632;29;20060;-83
2022/01/01 01:35:41;;;;;;;41.27;36.67;;;;;;;3.69;79.04;102151.25;4934484;29;20154;-84
2022/01/01 01:38:07;;;;;;;39.38;35.05;;;;;;;3.59;79.35;102140.22;4933474;29;20087;-83
2022/01/01 01:40:34;;;;;;;36.90;33.00;;;;;;;3.89;79.31;102183.84;4931232;29;20083;-82
2022/01/01 01:43:07;;;;;;;43.83;30.77;;;;;;;3.86;78.99;102182.19;4931221;29;20055;-82
2022/01/01 01:45:34;;;;;;;36.47;32.67;;;;;;;3.81;78.78;102187.59;4932340;29;20110;-83
2022/01/01 01:48:01;;;;;;;36.23;32.47;;;;;;;3.52;79.36;102157.09;4930871;29;20052;-83
2022/01/01 01:50:28;;;;;;;34.07;30.77;;;;;;;3.47;79.52;102156.41;4932237;29;20051;-83
2022/01/01 01:52:59;;;;;;;32.83;29.43;;;;;;;3.54;79.71;102173.63;4931398;29;20051;-82
2022/01/01 01:55:28;;;;;;;32.93;29.60;;;;;;;3.41;79.11;102146.09;4934753;29;20242;-83
2022/01/01 01:58:00;;;;;;;34.00;30.70;;;;;;;3.48;79.72;102168.59;4942576;29;20090;-82
2022/01/01 02:03:11;;;;;;;36.73;33.03;;;;;;;3.39;80.00;102140.03;4931861;29;20508;-81
2022/01/01 02:05:39;;;;;;;36.77;33.23;;;;;;;3.36;79.87;102127.88;4930565;29;20142;-83
2022/01/01 02:08:07;;;;;;;35.20;31.80;;;;;;;3.61;79.36;102164.63;4930745;29;20376;-81
2022/01/01 02:10:34;;;;;;;38.27;34.23;;;;;;;3.51;79.57;102150.09;4930404;29;20526;-83
2022/01/01 02:13:10;;;;;;;38.00;34.13;;;;;;;3.47;79.42;102124.88;4946507;29;20389;-82
2022/01/01 02:18:10;;;;;;;40.67;36.47;;;;;;;3.57;79.35;102113.13;4931652;29;20048;-83
2022/01/01 02:20:36;;;;;;;35.55;31.95;;;;;;;3.76;79.20;102136.09;4930468;29;20138;-82
2022/01/01 02:23:05;;;;;;;39.17;34.95;;;;;;;3.95;78.95;102146.81;4930485;29;20061;-83
2022/01/01 02:25:31;;;;;;;34.87;31.23;;;;;;;3.94;78.57;102145.09;4931003;29;20407;-81
2022/01/01 02:27:58;;;;;;;31.88;28.73;;;;;;;3.91;78.75;102138.19;4946145;29;20081;-81
2022/01/01 02:30:26;;;;;;;31.50;28.53;;;;;;;3.96;79.18;102146.75;4946368;29;20073;-83
2022/01/01 02:32:53;;;;;;;35.88;32.08;;;;;;;3.92;78.29;102139.91;4946111;29;20118;-83
2022/01/01 02:35:19;;;;;;;37.93;33.80;;;;;;;3.87;78.72;102141.84;4931521;29;20578;-83
2022/01/01 02:37:46;;;;;;;37.40;33.60;;;;;;;3.82;78.65;102143.78;4930269;29;20051;-82
2022/01/01 02:40:15;;;;;;;37.33;33.53;;;;;;;3.65;78.88;102126.00;4930147;29;20241;-82
2022/01/01 02:42:45;;;;;;;36.90;33.17;;;;;;;3.76;78.92;102113.34;4931218;29;20532;-83
2022/01/01 02:45:14;;;;;;;36.00;32.33;;;;;;;3.87;79.09;102118.19;4929490;29;20130;-82
2022/01/01 02:47:43;;;;;;;36.33;32.37;;;;;;;3.64;78.78;102091.00;4929848;29;20055;-81
2022/01/01 02:50:10;;;;;;;37.23;33.23;;;;;;;3.35;79.15;102028.16;4932200;29;20083;-82
2022/01/01 02:52:37;;;;;;;34.53;30.83;;;;;;;3.34;78.81;102029.06;4931920;29;20502;-81
2022/01/01 02:55:05;;;;;;;35.90;32.25;;;;;;;3.57;78.75;102060.63;4945752;29;20403;-82
2022/01/01 02:57:32;;;;;;;34.15;30.65;;;;;;;4.04;79.11;102146.47;4929723;29;20350;-83
2022/01/01 02:59:59;;;;;;;34.03;30.47;;;;;;;3.62;79.12;102090.19;4929908;29;20539;-81
2022/01/01 03:02:28;;;;;;;49.93;44.77;;;;;;;3.73;79.81;102113.44;4929636;29;20448;-81
2022/01/01 03:04:55;;;;;;;36.03;32.43;;;;;;;3.94;78.95;102156.47;4929980;29;20162;-81
2022/01/01 03:07:22;;;;;;;93.78;83.90;;;;;;;4.09;79.66;102154.19;4929929;29;20552;-82
2022/01/01 03:09:48;;;;;;;107.97;97.13;;;;;;;4.05;79.07;102146.44;4945559;29;20480;-82
2022/01/01 03:12:16;;;;;;;129.05;115.68;;;;;;;4.04;78.84;102133.34;4929593;29;20056;-81
2022/01/01 03:14:43;;;;;;;139.88;125.15;;;;;;;2.67;78.46;101886.28;4930862;29;20062;-81
2022/01/01 03:17:10;;;;;;;92.15;82.05;;;;;;;4.04;78.64;102115.78;4929469;29;20139;-81
2022/01/01 03:19:37;;;;;;;84.72;75.47;;;;;;;3.93;78.28;102110.09;4929403;29;20298;-81
2022/01/01 03:22:04;;;;;;;73.75;65.70;;;;;;;4.29;78.48;102144.63;4930705;29;20295;-82
2022/01/01 03:24:33;;;;;;;61.40;54.85;;;;;;;3.95;78.07;102089.84;4929420;29;20146;-82
2022/01/01 03:27:01;;;;;;;69.60;62.15;;;;;;;3.84;78.49;102084.16;4929522;29;20138;-82
2022/01/01 03:29:30;;;;;;;65.55;58.55;;;;;;;3.81;78.67;102092.13;4929405;29;20054;-82
2022/01/01 03:31:57;;;;;;;58.03;51.93;;;;;;;4.03;78.86;102137.75;4930946;29;20146;-81
2022/01/01 03:34:24;;;;;;;48.47;43.20;;;;;;;4.05;78.72;102143.81;4929952;29;20503;-82
2022/01/01 03:36:55;;;;;;;42.88;38.60;;;;;;;3.97;78.82;102135.31;4930507;29;20612;-82
2022/01/01 03:39:22;;;;;;;39.97;35.80;;;;;;;3.78;78.98;102114.13;4931098;29;20059;-81
2022/01/01 03:41:52;;;;;;;37.67;33.88;;;;;;;3.45;78.61;102055.81;4933472;29;20068;-80
2022/01/01 03:44:19;;;;;;;33.53;30.15;;;;;;;3.84;78.53;102134.06;4932193;29;20401;-79
2022/01/01 03:46:46;;;;;;;34.33;30.97;;;;;;;3.79;78.97;102122.88;4935105;29;20514;-82
2022/01/01 03:49:14;;;;;;;32.87;29.37;;;;;;;3.88;78.05;102140.91;4937861;29;20591;-82
2022/01/01 03:51:41;;;;;;;31.92;28.63;;;;;;;3.92;78.16;102137.28;4938183;29;20151;-84
2022/01/01 03:54:08;;;;;;;32.55;29.35;;;;;;;3.77;77.42;102112.41;4951315;29;20052;-85
2022/01/01 03:56:37;;;;;;;30.40;27.43;;;;;;;3.90;77.42;102143.50;4942761;29;20142;-83
2022/01/01 03:59:03;;;;;;;30.73;27.70;;;;;;;3.75;77.56;102126.53;4929115;29;20151;-83
2022/01/01 04:01:30;;;;;;;30.97;28.00;;;;;;;3.68;77.06;102101.38;4928528;29;20048;-84
2022/01/01 04:03:57;;;;;;;31.10;27.97;;;;;;;3.90;77.16;102149.59;4928896;29;20051;-82
2022/01/01 04:06:24;;;;;;;29.97;27.07;;;;;;;3.68;76.77;102112.75;4928809;29;20051;-83
2022/01/01 04:08:50;;;;;;;29.40;26.50;;;;;;;3.67;76.97;102116.28;4928593;29;20052;-81
2022/01/01 04:11:17;;;;;;;28.83;25.97;;;;;;;3.64;77.40;102127.78;4928728;29;20462;-82
2022/01/01 04:13:43;;;;;;;28.20;25.37;;;;;;;3.54;77.82;102123.72;4928806;29;20107;-82
2022/01/01 04:16:11;;;;;;;27.50;24.80;;;;;;;2.63;77.33;101968.56;4928530;29;20052;-83
2022/01/01 04:18:38;;;;;;;28.43;25.57;;;;;;;3.45;77.46;102116.19;4929530;29;20048;-82
2022/01/01 04:21:10;;;;;;;27.33;24.63;;;;;;;3.48;77.19;102100.31;4928885;29;20559;-82
2022/01/01 04:23:40;;;;;;;27.67;24.97;;;;;;;3.48;77.20;102108.22;4929025;29;20131;-84
2022/01/01 04:26:07;;;;;;;27.53;24.77;;;;;;;3.76;76.88;102133.47;4929969;29;20404;-82
2022/01/01 04:28:35;;;;;;;27.70;23.80;;;;;;;3.62;76.48;102142.72;4928822;29;20090;-83
2022/01/01 04:31:02;;;;;;;25.00;22.53;;;;;;;3.70;76.26;102142.44;4928462;29;20139;-84
2022/01/01 04:33:32;;;;;;;25.30;22.90;;;;;;;3.64;76.63;102142.66;4928534;29;20048;-83
2022/01/01 04:35:58;;;;;;;25.33;22.77;;;;;;;3.49;76.95;102127.44;4928453;29;20056;-80
2022/01/01 04:40:52;;;;;;;23.33;21.10;;;;;;;3.11;76.98;102069.25;4929401;29;20051;-82
2022/01/01 04:43:18;;;;;;;25.17;22.53;;;;;;;2.85;76.79;102015.91;4928682;29;20043;-81
2022/01/01 04:45:45;;;;;;;24.60;22.33;;;;;;;3.59;76.40;102145.47;4928410;29;20134;-81
2022/01/01 04:48:11;;;;;;;23.17;20.97;;;;;;;2.56;76.49;101978.41;4928404;29;20044;-81
2022/01/01 04:50:38;;;;;;;24.07;21.83;;;;;;;3.05;76.19;102053.72;4944442;29;20182;-81
2022/01/01 04:53:04;;;;;;;22.83;20.43;;;;;;;3.51;76.02;102144.00;4929493;29;20054;-81
2022/01/01 04:55:31;;;;;;;23.70;21.20;;;;;;;3.50;76.49;102145.78;4928368;29;20508;-82
2022/01/01 04:57:57;;;;;;;23.83;21.43;;;;;;;3.42;76.70;102132.91;4944112;29;20498;-80
2022/01/01 05:00:27;;;;;;;24.23;21.73;;;;;;;2.89;76.31;102032.38;4943720;29;20142;-82
2022/01/01 05:02:53;;;;;;;22.47;20.27;;;;;;;2.66;76.91;102009.56;4927962;29;20148;-81
2022/01/01 05:05:20;;;;;;;22.30;20.10;;;;;;;3.45;77.12;102145.09;4928759;29;20519;-83
2022/01/01 05:07:47;;;;;;;23.30;21.10;;;;;;;3.13;76.83;102099.78;4928426;29;20504;-82
2022/01/01 05:10:13;;;;;;;23.77;21.27;;;;;;;3.22;77.47;102122.22;4931915;29;20099;-82
2022/01/01 05:12:40;;;;;;;24.17;21.83;;;;;;;3.16;77.69;102119.81;4931794;29;20051;-82
2022/01/01 05:15:07;;;;;;;24.47;22.00;;;;;;;3.11;77.90;102122.59;4932758;29;20054;-81
2022/01/01 05:17:37;;;;;;;23.47;21.07;;;;;;;3.17;78.53;102135.50;4931768;29;20044;-83
2022/01/01 05:20:04;;;;;;;24.37;21.97;;;;;;;2.97;78.76;102109.06;4931918;29;20078;-82
2022/01/01 05:22:31;;;;;;;25.73;23.13;;;;;;;2.88;79.47;102091.84;4931492;29;20579;-82
2022/01/01 05:24:59;;;;;;;25.30;22.87;;;;;;;2.41;78.54;101989.41;4931010;29;20464;-82
2022/01/01 05:27:27;;;;;;;24.50;21.90;;;;;;;3.26;78.40;102130.88;4932761;29;20281;-82
2022/01/01 05:29:54;;;;;;;26.87;24.17;;;;;;;3.30;79.46;102132.47;4931498;29;20371;-80
2022/01/01 05:32:20;;;;;;;24.70;22.20;;;;;;;3.34;78.79;102147.19;4931307;29;20047;-82
2022/01/01 05:34:47;;;;;;;27.27;24.57;;;;;;;3.32;78.96;102152.50;4931459;29;20052;-85
2022/01/01 05:37:13;;;;;;;26.33;23.70;;;;;;;3.34;79.53;102149.81;4931610;29;20150;-83
2022/01/01 05:39:42;;;;;;;24.33;22.03;;;;;;;2.85;79.22;102072.75;4931843;29;20237;-81
2022/01/01 05:42:12;;;;;;;26.83;24.20;;;;;;;3.16;78.60;102125.91;4932910;29;20134;-81
2022/01/01 05:44:39;;;;;;;27.73;24.83;;;;;;;3.31;79.25;102152.56;4932844;29;20055;-81
2022/01/01 05:47:05;;;;;;;26.07;23.50;;;;;;;2.70;79.50;102061.00;4931597;29;20047;-81
2022/01/01 05:49:32;;;;;;;27.10;24.17;;;;;;;3.41;79.51;102167.09;4932557;29;20055;-83
2022/01/01 05:51:58;;;;;;;26.10;23.60;;;;;;;3.18;78.98;102137.22;4931441;29;20070;-83
2022/01/01 05:54:25;;;;;;;26.67;23.83;;;;;;;3.32;79.07;102168.25;4931517;29;20052;-79
2022/01/01 05:56:52;;;;;;;24.17;21.80;;;;;;;3.17;78.23;102146.00;4935328;29;20047;-83
2022/01/01 05:59:19;;;;;;;24.87;22.27;;;;;;;3.17;78.27;102151.25;4934623;29;20146;-84
2022/01/01 06:01:45;;;;;;;25.30;22.67;;;;;;;3.22;78.19;102162.44;4934662;29;20059;-81
2022/01/01 06:04:12;;;;;;;26.80;24.10;;;;;;;3.20;78.50;102158.16;4936787;29;20245;-81
2022/01/01 06:06:44;;;;;;;;;;;;;;;3.18;79.12;102166.09;4932574;29;20056;-81
2022/01/01 06:09:11;;;;;;;27.57;23.80;;;;;;;2.73;79.35;102090.59;4931429;29;19929;-82
2022/01/01 06:11:37;;;;;;;26.20;23.60;;;;;;;3.16;79.21;102165.28;4930881;29;20051;-83
2022/01/01 06:14:04;;;;;;;27.27;24.47;;;;;;;3.15;79.54;102166.19;4930665;29;20064;-81
2022/01/01 06:16:31;;;;;;;28.13;24.10;;;;;;;3.16;79.33;102167.91;4930653;29;20135;-84
2022/01/01 06:18:57;;;;;;;26.70;24.00;;;;;;;2.97;79.81;102135.31;4929065;29;20051;-83
2022/01/01 06:21:26;;;;;;;29.20;25.13;;;;;;;3.19;79.70;102175.69;4928549;29;20071;-80
2022/01/01 06:23:52;;;;;;;27.10;24.40;;;;;;;3.10;79.71;102154.13;4929869;29;20147;-84
2022/01/01 06:26:19;;;;;;;27.67;24.40;;;;;;;2.83;80.11;102113.91;4929500;29;20481;-81
2022/01/01 06:28:45;;;;;;;30.10;27.00;;;;;;;2.75;80.12;102109.78;4928936;29;20052;-83
2022/01/01 06:31:12;;;;;;;28.43;25.33;;;;;;;3.11;80.28;102156.72;4929197;29;20139;-81
2022/01/01 06:33:39;;;;;;;29.97;26.57;;;;;;;3.16;80.47;102160.03;4925790;29;20052;-82
2022/01/01 06:36:06;;;;;;;28.10;25.20;;;;;;;3.29;79.91;102189.34;4925920;29;20476;-83
2022/01/01 06:38:32;;;;;;;27.80;24.87;;;;;;;3.29;79.95;102178.00;4909968;29;20044;-82
2022/01/01 06:40:59;;;;;;;28.13;25.17;;;;;;;2.67;80.19;102085.56;4910039;29;20152;-84
2022/01/01 06:43:25;;;;;;;29.63;26.13;;;;;;;3.33;80.20;102190.13;4909732;29;20428;-83
2022/01/01 06:45:52;;;;;;;30.77;27.47;;;;;;;2.99;80.56;102138.75;4926646;29;20051;-82
2022/01/01 06:48:18;;;;;;;29.93;26.83;;;;;;;3.35;80.57;102183.91;4916208;29;20054;-83
2022/01/01 06:50:45;;;;;;;30.53;27.47;;;;;;;3.31;80.98;102181.44;4929941;29;20126;-82
2022/01/01 06:53:12;;;;;;;32.03;28.63;;;;;;;3.41;81.04;102193.34;4929759;29;20055;-81
2022/01/01 06:55:39;;;;;;;35.07;28.73;;;;;;;2.77;80.84;102086.13;4930114;29;20062;-82
2022/01/01 06:58:06;;;;;;;33.50;28.77;;;;;;;3.47;81.00;102205.41;4929999;29;20591;-82
2022/01/01 07:00:33;;;;;;;30.77;26.87;;;;;;;3.37;80.87;102173.34;4932433;29;20106;-83
2022/01/01 07:03:01;;;;;;;30.47;26.33;;;;;;;3.38;80.14;102189.06;4937762;29;20558;-83
2022/01/01 07:05:28;;;;;;;28.27;24.30;;;;;;;3.55;79.81;102214.75;4965520;29;20523;-85
2022/01/01 07:07:55;;;;;;;27.03;23.57;;;;;;;3.39;78.55;102182.03;4942343;29;20127;-82
2022/01/01 07:10:22;;;;;;;25.47;23.07;;;;;;;3.39;77.97;102197.78;4929118;29;20135;-82
2022/01/01 07:12:48;;;;;;;27.33;24.47;;;;;;;3.49;77.20;102221.97;4930000;29;20058;-83
2022/01/01 07:15:15;;;;;;;25.97;23.20;;;;;;;3.38;77.17;102209.22;4944237;29;20427;-82
2022/01/01 07:17:43;;;;;;;24.43;22.03;;;;;;;3.18;76.69;102181.84;4928731;29;20452;-82
2022/01/01 07:20:14;;;;;;;21.90;19.70;;;;;;;3.44;76.15;102237.88;4928566;29;20315;-81
2022/01/01 07:22:42;;;;;;;23.03;20.83;;;;;;;3.34;76.15;102234.69;4929805;29;20079;-83
2022/01/01 07:25:11;;;;;;;21.58;19.48;;;;;;;2.17;76.60;102045.22;4928181;29;20087;-82
2022/01/01 07:27:38;;;;;;;20.37;18.47;;;;;;;3.00;76.33;102190.31;4929183;29;20316;-81
2022/01/01 07:30:07;;;;;;;19.33;17.63;;;;;;;3.26;75.43;102238.47;4944197;29;20151;-84
2022/01/01 07:32:44;;;;;;;18.77;16.97;;;;;;;3.17;75.59;102247.50;4928997;29;20518;-81
2022/01/01 07:35:12;;;;;;;19.20;17.47;;;;;;;3.08;75.34;102251.25;4928963;29;20135;-82
2022/01/01 07:37:39;;;;;;;20.33;18.33;;;;;;;2.99;75.36;102248.94;4928809;29;20433;-80
2022/01/01 07:40:08;;;;;;;18.10;16.40;;;;;;;2.91;75.74;102245.69;4928474;29;20079;-82
2022/01/01 07:42:34;;;;;;;20.27;17.90;;;;;;;2.82;75.45;102223.22;4927621;29;20146;-83
2022/01/01 07:45:01;;;;;;;19.33;17.57;;;;;;;2.96;75.53;102265.63;4928354;29;20138;-80
2022/01/01 07:47:28;;;;;;;23.97;18.47;;;;;;;2.75;75.70;102242.66;4922517;29;20055;-80
2022/01/01 07:49:54;;;;;;;19.50;17.57;;;;;;;2.67;75.45;102231.53;4908238;29;20056;-84
2022/01/01 07:52:21;;;;;;;19.87;18.13;;;;;;;2.89;75.59;102273.72;4906663;29;20058;-83
2022/01/01 07:54:48;;;;;;;20.83;18.67;;;;;;;2.77;75.85;102260.06;4906731;29;20043;-83
2022/01/01 07:57:15;;;;;;;19.97;18.07;;;;;;;2.44;75.94;102203.38;4907862;29;20111;-82
2022/01/01 07:59:42;;;;;;;21.20;19.10;;;;;;;2.93;76.08;102280.59;4908429;29;20075;-81
2022/01/01 08:02:16;;;;;;;21.43;19.13;;;;;;;2.72;76.16;102245.41;4940581;29;20055;-84
2022/01/01 08:04:45;;;;;;;22.00;20.00;;;;;;;2.75;75.64;102248.78;4944924;29;20062;-83
2022/01/01 08:07:11;;;;;;;20.33;18.53;;;;;;;2.63;76.09;102224.69;4928813;29;20055;-80
2022/01/01 08:09:58;;;;;;;20.27;18.47;;;;;;;3.00;76.25;102287.38;4929456;29;20059;-81
2022/01/01 08:12:31;;;;;;;20.43;18.47;;;;;;;3.10;76.11;102283.56;4928335;29;20140;-82
2022/01/01 08:14:58;;;;;;;19.47;17.63;;;;;;;3.09;75.87;102284.47;4928065;29;20058;-82
2022/01/01 08:17:25;;;;;;;18.73;16.93;;;;;;;3.05;75.37;102269.72;4944135;29;20139;-81
2022/01/01 08:19:52;;;;;;;18.70;16.87;;;;;;;3.19;74.74;102291.16;4928132;29;20127;-82
2022/01/01 08:22:18;;;;;;;17.37;15.70;;;;;;;2.54;75.29;102210.94;4928326;29;20052;-83
2022/01/01 08:24:48;;;;;;;16.50;15.03;;;;;;;2.77;75.34;102254.84;4928747;29;20473;-82
2022/01/01 08:27:14;;;;;;;16.70;15.10;;;;;;;2.97;74.70;102282.22;4928409;29;20143;-84
2022/01/01 08:29:44;;;;;;;17.07;15.47;;;;;;;2.03;74.77;102166.97;4929106;29;20168;-82
2022/01/01 08:32:11;;;;;;;16.03;14.23;;;;;;;3.00;75.12;102308.38;4929495;29;20382;-83
2022/01/01 08:34:37;;;;;;;16.63;15.07;;;;;;;2.53;74.46;102272.13;4928547;29;20139;-83
2022/01/01 08:37:04;;;;;;;15.80;14.23;;;;;;;2.55;74.88;102274.72;4928126;29;20055;-82
2022/01/01 08:39:31;;;;;;;16.57;14.97;;;;;;;2.48;75.34;102302.03;4928092;29;20127;-82
2022/01/01 08:41:58;;;;;;;17.13;14.60;;;;;;;2.48;75.57;102276.66;4928074;29;20083;-81
2022/01/01 08:44:25;;;;;;;15.90;14.50;;;;;;;2.47;74.77;102302.91;4930606;29;20488;-83
2022/01/01 08:46:52;;;;;;;17.10;15.37;;;;;;;2.54;74.86;102320.19;4933087;29;20044;-82
2022/01/01 08:49:19;;;;;;;16.70;15.00;;;;;;;2.49;75.31;102324.69;4932962;29;20050;-82
2022/01/01 08:51:46;;;;;;;23.10;14.83;;;;;;;2.30;76.08;102301.59;4931364;29;20066;-82
2022/01/01 08:54:15;;;;;;;16.90;15.30;;;;;;;2.26;75.80;102302.59;4931799;29;20486;-83
2022/01/01 08:56:42;;;;;;;19.87;16.03;;;;;;;2.60;75.44;102340.13;4932173;29;20087;-83
2022/01/01 08:59:12;;;;;;;18.00;16.10;;;;;;;2.30;76.80;102308.59;4931747;29;20349;-81
2022/01/01 09:01:38;;;;;;;17.77;16.03;;;;;;;2.54;76.81;102336.78;4932000;29;20395;-84
2022/01/01 09:04:05;;;;;;;17.63;15.83;;;;;;;2.16;77.36;102266.19;4931330;29;20103;-84
2022/01/01 09:06:32;;;;;;;17.13;15.43;;;;;;;2.45;76.91;102304.72;4931112;29;20055;-83
2022/01/01 09:08:59;;;;;;;18.03;16.33;;;;;;;2.64;76.65;102321.63;4931121;29;20139;-82
2022/01/01 09:11:26;;;;;;;18.07;16.37;;;;;;;2.44;76.55;102292.50;4931863;29;20090;-82
2022/01/01 09:13:53;;;;;;;16.73;14.97;;;;;;;2.22;76.63;102240.69;4947009;29;20140;-83
2022/01/01 09:16:29;;;;;;;16.87;15.27;;;;;;;2.60;76.04;102320.03;4931549;29;20051;-83
2022/01/01 09:18:56;;;;;;;19.37;17.37;;;;;;;2.67;76.46;102337.31;4932424;29;20048;-86
2022/01/01 09:21:27;;;;;;;19.73;17.80;;;;;;;2.88;77.06;102358.56;4931225;29;20487;-80
2022/01/01 09:23:55;;;;;;;19.17;17.20;;;;;;;2.90;76.60;102362.88;4931133;29;20077;-82
2022/01/01 09:26:26;;;;;;;20.10;17.97;;;;;;;2.76;76.64;102347.53;4931021;29;20146;-83
2022/01/01 09:28:52;;;;;;;18.88;16.95;;;;;;;2.47;76.76;102292.41;4947074;29;20048;-81
2022/01/01 09:31:19;;;;;;;20.30;18.07;;;;;;;2.70;76.20;102326.72;4931172;29;20138;-83
2022/01/01 09:33:48;;;;;;;19.40;17.40;;;;;;;2.87;76.74;102343.75;4930655;29;20044;-82
2022/01/01 09:36:17;;;;;;;21.20;19.03;;;;;;;3.06;76.75;102347.56;4931276;29;20142;-81
2022/01/01 09:38:45;;;;;;;23.13;20.83;;;;;;;3.20;76.84;102361.13;4930668;29;20055;-82
2022/01/01 09:41:13;;;;;;;22.10;19.90;;;;;;;3.13;76.59;102335.97;4929232;29;20048;-82
2022/01/01 09:43:40;;;;;;;21.57;19.47;;;;;;;2.97;76.34;102311.09;4930529;29;20058;-81
2022/01/01 09:46:12;;;;;;;21.40;19.30;;;;;;;3.34;76.53;102358.06;4929641;29;20047;-82
2022/01/01 09:48:38;;;;;;;22.80;20.50;;;;;;;3.36;77.47;102350.16;4929076;29;20063;-81
2022/01/01 09:51:06;;;;;;;23.27;20.97;;;;;;;3.34;77.50;102318.69;4946618;29;20070;-81
2022/01/01 09:53:36;;;;;;;21.00;18.93;;;;;;;3.32;77.22;102296.03;4931588;29;20139;-82
2022/01/01 09:56:03;;;;;;;22.48;20.15;;;;;;;3.11;77.09;102252.97;4930497;29;20047;-82
2022/01/01 09:58:32;;;;;;;24.00;21.53;;;;;;;3.38;77.08;102278.31;4930985;29;20059;-82
2022/01/01 10:01:00;;;;;;;25.17;22.07;;;;;;;3.84;77.13;102334.59;4931344;29;20094;-82
2022/01/01 10:03:34;;;;;;;22.73;20.43;;;;;;;3.58;77.85;102282.91;4930244;29;20082;-82
2022/01/01 10:06:04;;;;;;;25.70;23.00;;;;;;;4.05;77.33;102337.41;4931534;29;20052;-82
2022/01/01 10:08:32;;;;;;;24.07;21.43;;;;;;;4.11;76.74;102326.69;4949725;29;20048;-84
2022/01/01 10:11:02;;;;;;;23.67;21.30;;;;;;;4.08;76.70;102308.41;4957421;29;20135;-83
2022/01/01 10:13:34;;;;;;;23.80;21.40;;;;;;;4.08;76.55;102295.28;4944111;29;20079;-86
2022/01/01 10:16:04;;;;;;;22.27;20.07;;;;;;;3.79;77.09;102256.84;4947313;29;20107;-83
2022/01/01 10:18:33;;;;;;;23.50;21.00;;;;;;;3.60;76.44;102214.59;4935763;29;20051;-83
2022/01/01 10:21:12;;;;;;;23.53;21.30;;;;;;;4.29;76.47;102322.56;4932274;29;20130;-83
2022/01/01 10:23:42;;;;;;;25.70;22.40;;;;;;;4.23;76.82;102307.88;4930888;29;20053;-81
2022/01/01 10:29:23;;;;;;;25.80;22.70;;;;;;;3.94;75.86;102224.78;4930287;29;20048;-80
2022/01/01 10:32:00;;;;;;;25.83;23.13;;;;;;;4.30;76.39;102292.75;4945273;29;20110;-81
2022/01/01 10:34:35;;;;;;;27.02;24.10;;;;;;;4.46;76.27;102316.72;4931011;29;20087;-81
2022/01/01 10:37:28;;;;;;;28.67;24.70;;;;;;;4.50;76.45;102313.91;4929484;29;20067;-82
2022/01/01 10:39:55;;;;;;;26.40;23.70;;;;;;;4.35;76.36;102288.19;4930941;29;20083;-83
2022/01/01 10:42:23;;;;;;;31.10;24.70;;;;;;;4.54;76.94;102319.06;4945698;29;20044;-81
2022/01/01 10:44:52;;;;;;;30.60;25.93;;;;;;;4.45;77.02;102307.09;4929934;29;20059;-81
2022/01/01 10:47:27;;;;;;;34.53;26.83;;;;;;;4.60;77.23;102316.22;4929392;29;20388;-82
2022/01/01 10:50:14;;;;;;;32.03;26.53;;;;;;;4.70;77.70;102325.47;4945232;29;20048;-80
2022/01/01 10:52:45;;;;;;;34.20;27.75;;;;;;;4.75;77.57;102304.25;4930738;29;20082;-81
2022/01/01 10:55:16;;;;;;;33.88;27.25;;;;;;;4.76;77.64;102298.97;4945090;29;20408;-82
2022/01/01 10:57:55;;;;;;;32.40;27.43;;;;;;;4.00;77.85;102150.97;4929191;29;20044;-82
2022/01/01 11:00:26;;;;;;;34.97;26.47;;;;;;;5.08;77.78;102308.25;4929957;29;20083;-83
2022/01/01 11:02:59;;;;;;;33.70;25.98;;;;;;;5.21;78.12;102290.19;4927157;29;20138;-83
2022/01/01 11:05:37;;;;;;;33.13;25.58;;;;;;;5.35;77.27;102277.34;4922082;29;20107;-83
2022/01/01 11:08:08;;;;;;;26.75;23.05;;;;;;;5.55;76.58;102270.41;4911134;29;20052;-83
2022/01/01 11:10:36;;;;;;;28.40;23.15;;;;;;;5.61;75.81;102249.09;4929109;29;20051;-83
2022/01/01 11:13:04;;;;;;;25.50;21.80;;;;;;;5.96;74.71;102291.56;4927373;29;20130;-81
2022/01/01 11:15:32;;;;;;;25.07;22.17;;;;;;;5.99;75.10;102278.25;4928094;29;20054;-84
2022/01/01 11:18:04;;;;;;;23.00;20.52;;;;;;;5.95;74.87;102281.94;4928758;29;20138;-83
2022/01/01 11:20:35;;;;;;;29.95;22.42;;;;;;;5.89;75.36;102277.75;4931332;29;20059;-83
2022/01/01 11:23:10;;;;;;;28.05;24.05;;;;;;;6.02;75.21;102288.69;4928142;29;20043;-83
2022/01/01 11:25:39;;;;;;;26.15;22.75;;;;;;;5.98;75.51;102287.09;4927722;29;20052;-84
2022/01/01 11:28:11;;;;;;;26.30;23.45;;;;;;;5.79;74.86;102253.56;4929012;29;20263;-83
2022/01/01 11:30:45;;;;;;;24.42;21.92;;;;;;;5.97;74.61;102285.34;4929832;29;20482;-84
2022/01/01 11:33:18;;;;;;;28.58;22.83;;;;;;;5.45;75.05;102205.84;4928877;29;20052;-84